Thunder radar more information blitzortung!


Radar de pluja more information rain snow radar


Visita la nostra xarxa de llocs de meteo:

Template documentation
and downloads

And another site



Extreme low temperature From: 13-12-2017 09:00 Until: 09:59 warning for: Extreme low temperature Level: Yellow info button

Pagina Historial Weather Underground text

Diari Resum May 29, 2017 Unitats:  Tant    Imperial   Mètric
« Previous Dia
SegĂźent Dia »
Diari Setmana Mensual Anual Personalitzada
  Maxima: Minima: Media:
Temperatura: 81 °F /  27.2 °C 59 °F /  15.0 °C 73.6 °F /  23.1 °C
Punt de rosada: 55 °F /  12.8 °C 42.3 °F /  5.7 °C 47.3 °F /  8.5 °C
Humitat: 68 % 29 % 41 %
Wind Speed: 12.8 mph /  20.6 km/h - 4.2 mph /  6.7 km/h
RĂ fegues de vent: 14 mph /  22.5 km/h - -
Vent:- - SE
Pression baro: 30.1 in /  1017.8 hPa 29.9 in /  1012.8 hPa -
Precipitacions: 0 in /  0.0 mm    
Historical Graphs
 
 
Dades de taula per May 29, 2017
Temps Temperatura Punt de rosada Pression baro Vent Wind Speed RĂ fegues de vent Humitat Rainfall Rate (Hourly)
00:00 59.2 °F /  15.1 °C 47.8 °F /  8.8 °C 30 in /  1015.8 hPa WSW 2 mph /  3.2 km/h 3 mph /  4.8 km/h 66 % 0 in /  0.0 mm
00:03 67.1 °F /  19.5 °C 51.4 °F /  10.8 °C 30.1 in /  1017.8 hPa Calm     57 % 0 in /  0.0 mm
00:08 66.9 °F /  19.4 °C 51.3 °F /  10.7 °C 30.1 in /  1017.8 hPa Calm     57 % 0 in /  0.0 mm
00:10 59.2 °F /  15.1 °C 47.8 °F /  8.8 °C 30 in /  1014.8 hPa WSW 1 mph /  1.6 km/h 2 mph /  3.2 km/h 66 % 0 in /  0.0 mm
00:20 59.4 °F /  15.2 °C 48.4 °F /  9.1 °C 30 in /  1015.8 hPa Calm   2 mph /  3.2 km/h 67 % 0 in /  0.0 mm
00:40 59.4 °F /  15.2 °C 48.4 °F /  9.1 °C 30 in /  1015.8 hPa Calm   2 mph /  3.2 km/h 67 % 0 in /  0.0 mm
00:50 59.5 °F /  15.3 °C 48.6 °F /  9.2 °C 30 in /  1015.8 hPa Calm   1 mph /  1.6 km/h 67 % 0 in /  0.0 mm
01:00 59.5 °F /  15.3 °C 48.6 °F /  9.2 °C 30 in /  1015.8 hPa Calm     67 % 0 in /  0.0 mm
01:10 59.5 °F /  15.3 °C 48.6 °F /  9.2 °C 30 in /  1015.8 hPa Calm     67 % 0 in /  0.0 mm
01:20 59.4 °F /  15.2 °C 48.4 °F /  9.1 °C 30 in /  1015.8 hPa Calm     67 % 0 in /  0.0 mm
01:30 59 °F /  15.0 °C 48.4 °F /  9.1 °C 30 in /  1015.8 hPa Calm     68 % 0 in /  0.0 mm
01:40 59 °F /  15.0 °C 48.4 °F /  9.1 °C 30 in /  1015.8 hPa Calm     68 % 0 in /  0.0 mm
01:50 59.2 °F /  15.1 °C 48.6 °F /  9.2 °C 30 in /  1015.8 hPa Calm     68 % 0 in /  0.0 mm
02:00 59.7 °F /  15.4 °C 49.1 °F /  9.5 °C 30 in /  1015.8 hPa Calm     68 % 0 in /  0.0 mm
02:10 60.6 °F /  15.9 °C 50 °F /  10.0 °C 30 in /  1015.8 hPa Calm     68 % 0 in /  0.0 mm
02:20 60.8 °F /  16.0 °C 49.8 °F /  9.9 °C 30 in /  1015.8 hPa NE 1 mph /  1.6 km/h 2 mph /  3.2 km/h 67 % 0 in /  0.0 mm
02:30 61.7 °F /  16.5 °C 50.5 °F /  10.3 °C 30 in /  1015.8 hPa NE 1 mph /  1.6 km/h 1 mph /  1.6 km/h 67 % 0 in /  0.0 mm
02:40 62.2 °F /  16.8 °C 50.7 °F /  10.4 °C 30 in /  1015.8 hPa NE 1 mph /  1.6 km/h 2 mph /  3.2 km/h 66 % 0 in /  0.0 mm
02:50 62.1 °F /  16.7 °C 50.5 °F /  10.3 °C 30 in /  1015.8 hPa Calm   1 mph /  1.6 km/h 66 % 0 in /  0.0 mm
03:00 63 °F /  17.2 °C 50.5 °F /  10.3 °C 30 in /  1015.8 hPa Calm   1 mph /  1.6 km/h 64 % 0 in /  0.0 mm
03:10 63 °F /  17.2 °C 50.2 °F /  10.1 °C 30 in /  1015.8 hPa SW 2 mph /  3.2 km/h 2 mph /  3.2 km/h 63 % 0 in /  0.0 mm
03:20 63 °F /  17.2 °C 49.6 °F /  9.8 °C 30 in /  1015.8 hPa SW 1 mph /  1.6 km/h 2 mph /  3.2 km/h 62 % 0 in /  0.0 mm
03:30 63.1 °F /  17.3 °C 49.8 °F /  9.9 °C 30 in /  1015.8 hPa SW 1 mph /  1.6 km/h 2 mph /  3.2 km/h 62 % 0 in /  0.0 mm
03:40 63.7 °F /  17.6 °C 50.4 °F /  10.2 °C 30 in /  1015.8 hPa Calm   2 mph /  3.2 km/h 62 % 0 in /  0.0 mm
03:50 64.8 °F /  18.2 °C 51.4 °F /  10.8 °C 30 in /  1015.8 hPa SW 1 mph /  1.6 km/h 2 mph /  3.2 km/h 62 % 0 in /  0.0 mm
04:00 65.8 °F /  18.8 °C 52 °F /  11.1 °C 30 in /  1015.8 hPa SW 2 mph /  3.2 km/h 2 mph /  3.2 km/h 61 % 0 in /  0.0 mm
04:15 68.7 °F /  20.4 °C 53.2 °F /  11.8 °C 30 in /  1015.8 hPa Calm   2 mph /  3.2 km/h 58 % 0 in /  0.0 mm
04:25 68.7 °F /  20.4 °C 52.3 °F /  11.3 °C 30 in /  1015.8 hPa East 1 mph /  1.6 km/h 2 mph /  3.2 km/h 56 % 0 in /  0.0 mm
04:45 71.2 °F /  21.8 °C 53.2 °F /  11.8 °C 30 in /  1014.8 hPa ENE 2 mph /  3.2 km/h 4 mph /  6.4 km/h 53 % 0 in /  0.0 mm
04:55 71.8 °F /  22.1 °C 52.7 °F /  11.5 °C 30 in /  1016.8 hPa SE 2 mph /  3.2 km/h 2 mph /  3.2 km/h 51 % 0 in /  0.0 mm
05:05 72.1 °F /  22.3 °C 53.1 °F /  11.7 °C 30 in /  1016.8 hPa SSW 1 mph /  1.6 km/h 2 mph /  3.2 km/h 51 % 0 in /  0.0 mm
05:15 72.5 °F /  22.5 °C 53.2 °F /  11.8 °C 30 in /  1014.8 hPa SW 2 mph /  3.2 km/h 3 mph /  4.8 km/h 51 % 0 in /  0.0 mm
05:25 73.4 °F /  23.0 °C 53.6 °F /  12.0 °C 30 in /  1015.8 hPa SW 1 mph /  1.6 km/h 2 mph /  3.2 km/h 50 % 0 in /  0.0 mm
10:34 73.6 °F /  23.1 °C 53.2 °F /  11.8 °C 30 in /  1015.8 hPa WSW 1.2 mph /  1.9 km/h 1.4 mph /  2.3 km/h 49 % 0 in /  0.0 mm
10:39 74.3 °F /  23.5 °C 53.2 °F /  11.8 °C 30 in /  1015.8 hPa SSE 1.2 mph /  1.9 km/h 1.2 mph /  1.9 km/h 48 % 0 in /  0.0 mm
10:40 74.3 °F /  23.5 °C 53.2 °F /  11.8 °C 30 in /  1015.8 hPa SE 2 mph /  3.2 km/h 2 mph /  3.2 km/h 48 % 0 in /  0.0 mm
10:45 74.5 °F /  23.6 °C 52.9 °F /  11.6 °C 30 in /  1015.8 hPa SE 3.3 mph /  5.3 km/h 3.3 mph /  5.3 km/h 47 % 0 in /  0.0 mm
10:50 73.8 °F /  23.2 °C 52.3 °F /  11.3 °C 30 in /  1015.8 hPa ESE 3.5 mph /  5.6 km/h 3.5 mph /  5.6 km/h 47 % 0 in /  0.0 mm
10:55 74.3 °F /  23.5 °C 52.9 °F /  11.6 °C 30 in /  1015.8 hPa NE 2.6 mph /  4.2 km/h 2.6 mph /  4.2 km/h 47 % 0 in /  0.0 mm
11:00 75 °F /  23.9 °C 53.4 °F /  11.9 °C 30 in /  1015.8 hPa SW 2.3 mph /  3.7 km/h 2.3 mph /  3.7 km/h 47 % 0 in /  0.0 mm
11:05 76.3 °F /  24.6 °C 54 °F /  12.2 °C 30 in /  1015.8 hPa South 1.6 mph /  2.6 km/h   46 % 0 in /  0.0 mm
11:10 76.6 °F /  24.8 °C 53.8 °F /  12.1 °C 30 in /  1015.8 hPa SE 2.6 mph /  4.2 km/h 2.6 mph /  4.2 km/h 45 % 0 in /  0.0 mm
11:15 75.9 °F /  24.4 °C 52.3 °F /  11.3 °C 30 in /  1015.8 hPa South 3.5 mph /  5.6 km/h 3.5 mph /  5.6 km/h 44 % 0 in /  0.0 mm
11:20 75.9 °F /  24.4 °C 52.3 °F /  11.3 °C 30 in /  1015.8 hPa SSE 3.5 mph /  5.6 km/h 3.5 mph /  5.6 km/h 44 % 0 in /  0.0 mm
11:25 76.5 °F /  24.7 °C 52.3 °F /  11.3 °C 30 in /  1015.8 hPa ESE 3.5 mph /  5.6 km/h 3.5 mph /  5.6 km/h 43 % 0 in /  0.0 mm
11:30 77.5 °F /  25.3 °C 53.2 °F /  11.8 °C 30 in /  1015.8 hPa SW 2.3 mph /  3.7 km/h 2.3 mph /  3.7 km/h 43 % 0 in /  0.0 mm
11:35 78.8 °F /  26.0 °C 54.3 °F /  12.4 °C 30 in /  1015.8 hPa SSW 1.2 mph /  1.9 km/h 1.2 mph /  1.9 km/h 43 % 0 in /  0.0 mm
11:40 80.2 °F /  26.8 °C 55 °F /  12.8 °C 30 in /  1015.8 hPa ESE 2.3 mph /  3.7 km/h 2.3 mph /  3.7 km/h 42 % 0 in /  0.0 mm
11:45 79.3 °F /  26.3 °C 53.6 °F /  12.0 °C 30 in /  1015.8 hPa SE 2.3 mph /  3.7 km/h 2.3 mph /  3.7 km/h 41 % 0 in /  0.0 mm
11:50 78.4 °F /  25.8 °C 52.2 °F /  11.2 °C 30 in /  1015.8 hPa NE 3.5 mph /  5.6 km/h 3.5 mph /  5.6 km/h 40 % 0 in /  0.0 mm
11:55 77.2 °F /  25.1 °C 50.4 °F /  10.2 °C 30 in /  1015.8 hPa North 5.8 mph /  9.3 km/h 5.8 mph /  9.3 km/h 39 % 0 in /  0.0 mm
12:00 77.2 °F /  25.1 °C 50.4 °F /  10.2 °C 30 in /  1015.8 hPa SE 4 mph /  6.4 km/h 4 mph /  6.4 km/h 39 % 0 in /  0.0 mm
12:05 77.5 °F /  25.3 °C 51.3 °F /  10.7 °C 30 in /  1015.8 hPa East 4.6 mph /  7.4 km/h 4.6 mph /  7.4 km/h 40 % 0 in /  0.0 mm
12:10 78.6 °F /  25.9 °C 51.6 °F /  10.9 °C 30 in /  1015.8 hPa South 2.6 mph /  4.2 km/h 2.6 mph /  4.2 km/h 39 % 0 in /  0.0 mm
12:15 78.3 °F /  25.7 °C 52 °F /  11.1 °C 30 in /  1015.8 hPa ENE 4 mph /  6.4 km/h 4 mph /  6.4 km/h 40 % 0 in /  0.0 mm
12:20 78.3 °F /  25.7 °C 51.3 °F /  10.7 °C 30 in /  1015.8 hPa SSE 1.2 mph /  1.9 km/h 1.2 mph /  1.9 km/h 39 % 0 in /  0.0 mm
12:25 78.8 °F /  26.0 °C 51.6 °F /  10.9 °C 30 in /  1015.8 hPa ESE 2.6 mph /  4.2 km/h 2.6 mph /  4.2 km/h 39 % 0 in /  0.0 mm
12:30 78.6 °F /  25.9 °C 51.6 °F /  10.9 °C 30 in /  1015.8 hPa SSE 4.6 mph /  7.4 km/h 4.6 mph /  7.4 km/h 39 % 0 in /  0.0 mm
12:35 78.6 °F /  25.9 °C 50.9 °F /  10.5 °C 30 in /  1015.8 hPa NNE 4.3 mph /  6.9 km/h 4.3 mph /  6.9 km/h 38 % 0 in /  0.0 mm
12:40 79 °F /  26.1 °C 52 °F /  11.1 °C 30 in /  1015.8 hPa ESE 3.8 mph /  6.1 km/h 3.8 mph /  6.1 km/h 39 % 0 in /  0.0 mm
12:45 79.2 °F /  26.2 °C 51.4 °F /  10.8 °C 30 in /  1015.8 hPa East 2.3 mph /  3.7 km/h 2.3 mph /  3.7 km/h 38 % 0 in /  0.0 mm
12:50 79.9 °F /  26.6 °C 52 °F /  11.1 °C 30 in /  1015.8 hPa South 4.6 mph /  7.4 km/h 4.6 mph /  7.4 km/h 38 % 0 in /  0.0 mm
12:55 79.5 °F /  26.4 °C 51.6 °F /  10.9 °C 30 in /  1015.8 hPa East 6.2 mph /  10.0 km/h 6.2 mph /  10.0 km/h 38 % 0 in /  0.0 mm
13:00 79.5 °F /  26.4 °C 51.1 °F /  10.6 °C 30 in /  1015.8 hPa ESE 9.8 mph /  15.8 km/h 9.8 mph /  15.8 km/h 37 % 0 in /  0.0 mm
13:05 78.4 °F /  25.8 °C 49.3 °F /  9.6 °C 30 in /  1015.8 hPa ESE 8.1 mph /  13.0 km/h 8.1 mph /  13.0 km/h 36 % 0 in /  0.0 mm
13:10 79.2 °F /  26.2 °C 49.8 °F /  9.9 °C 30 in /  1014.8 hPa South 4.6 mph /  7.4 km/h 4.6 mph /  7.4 km/h 36 % 0 in /  0.0 mm
13:15 79.5 °F /  26.4 °C 50.2 °F /  10.1 °C 30 in /  1014.8 hPa ENE 8.1 mph /  13.0 km/h 8.1 mph /  13.0 km/h 36 % 0 in /  0.0 mm
13:20 79.7 °F /  26.5 °C 50.4 °F /  10.2 °C 30 in /  1014.8 hPa SW 9.2 mph /  14.8 km/h 9.2 mph /  14.8 km/h 36 % 0 in /  0.0 mm
13:25 80.1 °F /  26.7 °C 49.3 °F /  9.6 °C 30 in /  1014.8 hPa ESE 9.2 mph /  14.8 km/h 9.2 mph /  14.8 km/h 34 % 0 in /  0.0 mm
13:30 79.9 °F /  26.6 °C 49.8 °F /  9.9 °C 30 in /  1014.8 hPa WSW 6.9 mph /  11.1 km/h 6.9 mph /  11.1 km/h 35 % 0 in /  0.0 mm
13:35 79.5 °F /  26.4 °C 49.5 °F /  9.7 °C 30 in /  1014.8 hPa SE 5.9 mph /  9.5 km/h 5.9 mph /  9.5 km/h 35 % 0 in /  0.0 mm
13:40 80.1 °F /  26.7 °C 49.8 °F /  9.9 °C 30 in /  1014.8 hPa SSE 5.8 mph /  9.3 km/h 5.8 mph /  9.3 km/h 35 % 0 in /  0.0 mm
13:45 79.5 °F /  26.4 °C 48.7 °F /  9.3 °C 30 in /  1014.8 hPa ESE 10.4 mph /  16.7 km/h 10.4 mph /  16.7 km/h 34 % 0 in /  0.0 mm
13:50 79.3 °F /  26.3 °C 48.6 °F /  9.2 °C 30 in /  1014.8 hPa NNE 8.1 mph /  13.0 km/h 8.1 mph /  13.0 km/h 34 % 0 in /  0.0 mm
13:55 79.5 °F /  26.4 °C 47.8 °F /  8.8 °C 30 in /  1014.8 hPa ESE 6.9 mph /  11.1 km/h 6.9 mph /  11.1 km/h 33 % 0 in /  0.0 mm
14:00 79.5 °F /  26.4 °C 47.8 °F /  8.8 °C 30 in /  1014.8 hPa ESE 5.8 mph /  9.3 km/h 6.2 mph /  10.0 km/h 33 % 0 in /  0.0 mm
14:05 79.7 °F /  26.5 °C 48.7 °F /  9.3 °C 30 in /  1014.8 hPa ESE 9.2 mph /  14.8 km/h 9.2 mph /  14.8 km/h 34 % 0 in /  0.0 mm
14:10 79.7 °F /  26.5 °C 48.7 °F /  9.3 °C 30 in /  1014.8 hPa ENE 5.9 mph /  9.5 km/h 5.9 mph /  9.5 km/h 34 % 0 in /  0.0 mm
14:15 79.5 °F /  26.4 °C 47.1 °F /  8.4 °C 30 in /  1014.8 hPa East 12.7 mph /  20.4 km/h 12.7 mph /  20.4 km/h 32 % 0 in /  0.0 mm
14:20 79.7 °F /  26.5 °C 47.1 °F /  8.4 °C 30 in /  1014.8 hPa East 8.1 mph /  13.0 km/h 8.1 mph /  13.0 km/h 32 % 0 in /  0.0 mm
14:25 79.7 °F /  26.5 °C 47.1 °F /  8.4 °C 30 in /  1014.8 hPa ENE 8.1 mph /  13.0 km/h 8.1 mph /  13.0 km/h 32 % 0 in /  0.0 mm
14:30 79.5 °F /  26.4 °C 46.2 °F /  7.9 °C 30 in /  1014.8 hPa ESE 9.2 mph /  14.8 km/h 9.2 mph /  14.8 km/h 31 % 0 in /  0.0 mm
14:35 80.1 °F /  26.7 °C 46.8 °F /  8.2 °C 30 in /  1014.8 hPa NE 6.4 mph /  10.3 km/h 6.4 mph /  10.3 km/h 31 % 0 in /  0.0 mm
14:40 80.4 °F /  26.9 °C 46.9 °F /  8.3 °C 29.9 in /  1013.8 hPa ESE 5.8 mph /  9.3 km/h 5.8 mph /  9.3 km/h 31 % 0 in /  0.0 mm
14:45 79.7 °F /  26.5 °C 46.4 °F /  8.0 °C 29.9 in /  1013.8 hPa ESE 7 mph /  11.3 km/h 11 mph /  17.7 km/h 31 % 0 in /  0.0 mm
14:50 79.7 °F /  26.5 °C 46.4 °F /  8.0 °C 29.9 in /  1013.8 hPa ESE 7 mph /  11.3 km/h 10 mph /  16.1 km/h 31 % 0 in /  0.0 mm
14:55 80.2 °F /  26.8 °C 46.8 °F /  8.2 °C 29.9 in /  1013.8 hPa East 5 mph /  8.0 km/h 12 mph /  19.3 km/h 31 % 0 in /  0.0 mm
15:00 80.6 °F /  27.0 °C 46.2 °F /  7.9 °C 29.9 in /  1013.8 hPa ESE 8 mph /  12.9 km/h 12 mph /  19.3 km/h 30 % 0 in /  0.0 mm
15:05 81 °F /  27.2 °C 46.6 °F /  8.1 °C 29.9 in /  1013.8 hPa SE 3 mph /  4.8 km/h 14 mph /  22.5 km/h 30 % 0 in /  0.0 mm
15:10 79.9 °F /  26.6 °C 45.7 °F /  7.6 °C 29.9 in /  1013.8 hPa SE 12.7 mph /  20.4 km/h 12.7 mph /  20.4 km/h 30 % 0 in /  0.0 mm
15:15 79.7 °F /  26.5 °C 45.5 °F /  7.5 °C 29.9 in /  1013.8 hPa East 10.4 mph /  16.7 km/h 10.4 mph /  16.7 km/h 30 % 0 in /  0.0 mm
15:20 80.1 °F /  26.7 °C 45.9 °F /  7.7 °C 29.9 in /  1013.8 hPa ENE 10.4 mph /  16.7 km/h 10.4 mph /  16.7 km/h 30 % 0 in /  0.0 mm
15:25 79.9 °F /  26.6 °C 45.7 °F /  7.6 °C 29.9 in /  1012.8 hPa SSE 11.5 mph /  18.5 km/h 11.5 mph /  18.5 km/h 30 % 0 in /  0.0 mm
15:30 80.1 °F /  26.7 °C 45.9 °F /  7.7 °C 29.9 in /  1012.8 hPa East 12.8 mph /  20.6 km/h 12.8 mph /  20.6 km/h 30 % 0 in /  0.0 mm
15:35 79.5 °F /  26.4 °C 45.3 °F /  7.4 °C 29.9 in /  1012.8 hPa SE 8.1 mph /  13.0 km/h 8.1 mph /  13.0 km/h 30 % 0 in /  0.0 mm
15:40 79.3 °F /  26.3 °C 45.1 °F /  7.3 °C 29.9 in /  1013.8 hPa East 9.2 mph /  14.8 km/h 9.2 mph /  14.8 km/h 30 % 0 in /  0.0 mm
15:45 79.5 °F /  26.4 °C 45.3 °F /  7.4 °C 29.9 in /  1013.8 hPa ESE 9.2 mph /  14.8 km/h 9.2 mph /  14.8 km/h 30 % 0 in /  0.0 mm
15:50 79.7 °F /  26.5 °C 45.5 °F /  7.5 °C 29.9 in /  1013.8 hPa ESE 12.7 mph /  20.4 km/h 12.7 mph /  20.4 km/h 30 % 0 in /  0.0 mm
15:55 79.7 °F /  26.5 °C 44.6 °F /  7.0 °C 29.9 in /  1012.8 hPa ESE 8.1 mph /  13.0 km/h 8.1 mph /  13.0 km/h 29 % 0 in /  0.0 mm
16:00 79.9 °F /  26.6 °C 44.8 °F /  7.1 °C 29.9 in /  1012.8 hPa ENE 12.7 mph /  20.4 km/h 12.7 mph /  20.4 km/h 29 % 0 in /  0.0 mm
16:05 80.1 °F /  26.7 °C 45.9 °F /  7.7 °C 29.9 in /  1012.8 hPa ENE 7.1 mph /  11.4 km/h 7.1 mph /  11.4 km/h 30 % 0 in /  0.0 mm
16:10 79.5 °F /  26.4 °C 45.3 °F /  7.4 °C 29.9 in /  1013.8 hPa East 12.7 mph /  20.4 km/h 12.7 mph /  20.4 km/h 30 % 0 in /  0.0 mm
16:15 79.7 °F /  26.5 °C 45.5 °F /  7.5 °C 29.9 in /  1013.8 hPa ESE 10.4 mph /  16.7 km/h 10.4 mph /  16.7 km/h 30 % 0 in /  0.0 mm
16:20 79.9 °F /  26.6 °C 45.7 °F /  7.6 °C 29.9 in /  1013.8 hPa ESE 8.1 mph /  13.0 km/h 8.1 mph /  13.0 km/h 30 % 0 in /  0.0 mm
16:25 80.8 °F /  27.1 °C 46.4 °F /  8.0 °C 29.9 in /  1013.8 hPa SSW 5.8 mph /  9.3 km/h 5.8 mph /  9.3 km/h 30 % 0 in /  0.0 mm
16:35 79.9 °F /  26.6 °C 45.7 °F /  7.6 °C 29.9 in /  1012.8 hPa East 4.6 mph /  7.4 km/h 4.6 mph /  7.4 km/h 30 % 0 in /  0.0 mm
16:40 79.7 °F /  26.5 °C 44.6 °F /  7.0 °C 29.9 in /  1012.8 hPa WSW 8.1 mph /  13.0 km/h 8.1 mph /  13.0 km/h 29 % 0 in /  0.0 mm
16:45 80.1 °F /  26.7 °C 45.9 °F /  7.7 °C 29.9 in /  1012.8 hPa ENE 5.9 mph /  9.5 km/h 5.9 mph /  9.5 km/h 30 % 0 in /  0.0 mm
16:50 78.8 °F /  26.0 °C 44.8 °F /  7.1 °C 29.9 in /  1013.8 hPa NE 11.5 mph /  18.5 km/h 11.5 mph /  18.5 km/h 30 % 0 in /  0.0 mm
16:55 78.4 °F /  25.8 °C 44.4 °F /  6.9 °C 29.9 in /  1013.8 hPa East 11.5 mph /  18.5 km/h 11.5 mph /  18.5 km/h 30 % 0 in /  0.0 mm
17:00 77.7 °F /  25.4 °C 43.9 °F /  6.6 °C 29.9 in /  1013.8 hPa ESE 10.9 mph /  17.5 km/h 10.9 mph /  17.5 km/h 30 % 0 in /  0.0 mm
17:05 77.9 °F /  25.5 °C 44.1 °F /  6.7 °C 29.9 in /  1012.8 hPa ESE 5.8 mph /  9.3 km/h 5.8 mph /  9.3 km/h 30 % 0 in /  0.0 mm
17:10 77.4 °F /  25.2 °C 43.5 °F /  6.4 °C 29.9 in /  1012.8 hPa East 10.4 mph /  16.7 km/h 10.4 mph /  16.7 km/h 30 % 0 in /  0.0 mm
17:15 77.2 °F /  25.1 °C 44.2 °F /  6.8 °C 29.9 in /  1012.8 hPa ESE 5.8 mph /  9.3 km/h 5.8 mph /  9.3 km/h 31 % 0 in /  0.0 mm
17:20 76.6 °F /  24.8 °C 44.6 °F /  7.0 °C 29.9 in /  1012.8 hPa ESE 12.7 mph /  20.4 km/h 12.7 mph /  20.4 km/h 32 % 0 in /  0.0 mm
17:25 76.6 °F /  24.8 °C 44.6 °F /  7.0 °C 29.9 in /  1012.8 hPa SE 9.7 mph /  15.6 km/h 9.7 mph /  15.6 km/h 32 % 0 in /  0.0 mm
17:30 76.3 °F /  24.6 °C 44.2 °F /  6.8 °C 29.9 in /  1012.8 hPa SE 9.2 mph /  14.8 km/h 9.2 mph /  14.8 km/h 32 % 0 in /  0.0 mm
17:35 76.3 °F /  24.6 °C 44.2 °F /  6.8 °C 29.9 in /  1012.8 hPa ENE 10.4 mph /  16.7 km/h 10.4 mph /  16.7 km/h 32 % 0 in /  0.0 mm
17:40 75.9 °F /  24.4 °C 43.9 °F /  6.6 °C 29.9 in /  1012.8 hPa ESE 9.4 mph /  15.1 km/h 9.4 mph /  15.1 km/h 32 % 0 in /  0.0 mm
17:45 75.7 °F /  24.3 °C 43.9 °F /  6.6 °C 29.9 in /  1012.8 hPa ESE 9.2 mph /  14.8 km/h 9.2 mph /  14.8 km/h 32 % 0 in /  0.0 mm
17:50 75.2 °F /  24.0 °C 42.4 °F /  5.8 °C 29.9 in /  1012.8 hPa NE 10.4 mph /  16.7 km/h 10.4 mph /  16.7 km/h 31 % 0 in /  0.0 mm
17:55 75.2 °F /  24.0 °C 42.4 °F /  5.8 °C 29.9 in /  1012.8 hPa ESE 9.2 mph /  14.8 km/h 9.2 mph /  14.8 km/h 31 % 0 in /  0.0 mm
18:00 75 °F /  23.9 °C 42.3 °F /  5.7 °C 29.9 in /  1012.8 hPa ENE 8.1 mph /  13.0 km/h 8.1 mph /  13.0 km/h 31 % 0 in /  0.0 mm
18:05 75 °F /  23.9 °C 43.2 °F /  6.2 °C 29.9 in /  1012.8 hPa SE 5.8 mph /  9.3 km/h 5.8 mph /  9.3 km/h 32 % 0 in /  0.0 mm
18:10 74.8 °F /  23.8 °C 43 °F /  6.1 °C 29.9 in /  1012.8 hPa SW 4.6 mph /  7.4 km/h 4.6 mph /  7.4 km/h 32 % 0 in /  0.0 mm
18:15 74.8 °F /  23.8 °C 43 °F /  6.1 °C 29.9 in /  1012.8 hPa NE 3.5 mph /  5.6 km/h 3.8 mph /  6.1 km/h 32 % 0 in /  0.0 mm
18:20 74.7 °F /  23.7 °C 42.8 °F /  6.0 °C 29.9 in /  1012.8 hPa ESE 9.2 mph /  14.8 km/h 9.2 mph /  14.8 km/h 32 % 0 in /  0.0 mm
18:25 74.5 °F /  23.6 °C 42.6 °F /  5.9 °C 29.9 in /  1012.8 hPa NNE 6.9 mph /  11.1 km/h 6.9 mph /  11.1 km/h 32 % 0 in /  0.0 mm
18:30 74.7 °F /  23.7 °C 43.5 °F /  6.4 °C 29.9 in /  1012.8 hPa ESE 5.4 mph /  8.7 km/h 5.4 mph /  8.7 km/h 33 % 0 in /  0.0 mm
18:35 74.3 °F /  23.5 °C 43.3 °F /  6.3 °C 29.9 in /  1012.8 hPa East 5.8 mph /  9.3 km/h 5.8 mph /  9.3 km/h 33 % 0 in /  0.0 mm
18:40 74.3 °F /  23.5 °C 44.1 °F /  6.7 °C 29.9 in /  1012.8 hPa ESE 5.8 mph /  9.3 km/h 5.8 mph /  9.3 km/h 34 % 0 in /  0.0 mm
18:45 74.3 °F /  23.5 °C 44.1 °F /  6.7 °C 29.9 in /  1012.8 hPa ESE 6.4 mph /  10.3 km/h 6.4 mph /  10.3 km/h 34 % 0 in /  0.0 mm
18:50 74.1 °F /  23.4 °C 44.8 °F /  7.1 °C 29.9 in /  1012.8 hPa SSE 5.8 mph /  9.3 km/h 5.8 mph /  9.3 km/h 35 % 0 in /  0.0 mm
18:55 74.1 °F /  23.4 °C 44.8 °F /  7.1 °C 29.9 in /  1012.8 hPa ENE 6.9 mph /  11.1 km/h 6.9 mph /  11.1 km/h 35 % 0 in /  0.0 mm
19:00 74.1 °F /  23.4 °C 44.8 °F /  7.1 °C 29.9 in /  1012.8 hPa East 6.9 mph /  11.1 km/h 6.9 mph /  11.1 km/h 35 % 0 in /  0.0 mm
19:05 73.9 °F /  23.3 °C 44.4 °F /  6.9 °C 29.9 in /  1012.8 hPa ESE 6.9 mph /  11.1 km/h 6.9 mph /  11.1 km/h 35 % 0 in /  0.0 mm
19:10 73.9 °F /  23.3 °C 44.4 °F /  6.9 °C 29.9 in /  1012.8 hPa ESE 5.8 mph /  9.3 km/h 5.8 mph /  9.3 km/h 35 % 0 in /  0.0 mm
19:15 74.1 °F /  23.4 °C 44.8 °F /  7.1 °C 29.9 in /  1012.8 hPa South 2.3 mph /  3.7 km/h 2.3 mph /  3.7 km/h 35 % 0 in /  0.0 mm
19:20 74.3 °F /  23.5 °C 45.7 °F /  7.6 °C 29.9 in /  1013.8 hPa WSW 2.3 mph /  3.7 km/h 2.3 mph /  3.7 km/h 36 % 0 in /  0.0 mm
19:25 74.5 °F /  23.6 °C 45.9 °F /  7.7 °C 29.9 in /  1013.8 hPa SW 3.1 mph /  5.0 km/h   36 % 0 in /  0.0 mm
19:30 74.7 °F /  23.7 °C 45.1 °F /  7.3 °C 29.9 in /  1013.8 hPa SW 2.3 mph /  3.7 km/h 2.3 mph /  3.7 km/h 35 % 0 in /  0.0 mm
19:35 74.7 °F /  23.7 °C 45.1 °F /  7.3 °C 29.9 in /  1013.8 hPa SW 2.3 mph /  3.7 km/h 2.3 mph /  3.7 km/h 35 % 0 in /  0.0 mm
19:40 74.7 °F /  23.7 °C 45.1 °F /  7.3 °C 29.9 in /  1013.8 hPa SSE 1.2 mph /  1.9 km/h   35 % 0 in /  0.0 mm
19:45 74.7 °F /  23.7 °C 45.1 °F /  7.3 °C 29.9 in /  1013.8 hPa SW 1.2 mph /  1.9 km/h 1.2 mph /  1.9 km/h 35 % 0 in /  0.0 mm
19:50 74.3 °F /  23.5 °C 44.1 °F /  6.7 °C 29.9 in /  1013.8 hPa WSW 2.4 mph /  3.9 km/h 2.4 mph /  3.9 km/h 34 % 0 in /  0.0 mm
19:55 74.1 °F /  23.4 °C 43.9 °F /  6.6 °C 29.9 in /  1013.8 hPa SW 2.3 mph /  3.7 km/h 2.3 mph /  3.7 km/h 34 % 0 in /  0.0 mm
20:00 73.9 °F /  23.3 °C 43.9 °F /  6.6 °C 29.9 in /  1013.8 hPa SSW 2.3 mph /  3.7 km/h 2.3 mph /  3.7 km/h 34 % 0 in /  0.0 mm
20:05 73.9 °F /  23.3 °C 43.9 °F /  6.6 °C 29.9 in /  1013.8 hPa SW 2.3 mph /  3.7 km/h 2.3 mph /  3.7 km/h 34 % 0 in /  0.0 mm
20:10 73.9 °F /  23.3 °C 43.9 °F /  6.6 °C 29.9 in /  1013.8 hPa SW 2.3 mph /  3.7 km/h   34 % 0 in /  0.0 mm
20:15 73.8 °F /  23.2 °C 43.5 °F /  6.4 °C 29.9 in /  1013.8 hPa WSW 2 mph /  3.2 km/h 2 mph /  3.2 km/h 34 % 0 in /  0.0 mm
20:20 73.8 °F /  23.2 °C 43.5 °F /  6.4 °C 29.9 in /  1013.8 hPa Calm     34 % 0 in /  0.0 mm
20:25 73.6 °F /  23.1 °C 43.5 °F /  6.4 °C 29.9 in /  1013.8 hPa Calm     34 % 0 in /  0.0 mm
20:30 73.4 °F /  23.0 °C 42.4 °F /  5.8 °C 29.9 in /  1013.8 hPa SW 2.3 mph /  3.7 km/h 2.3 mph /  3.7 km/h 33 % 0 in /  0.0 mm
20:35 73.2 °F /  22.9 °C 43.2 °F /  6.2 °C 29.9 in /  1013.8 hPa SW 1.2 mph /  1.9 km/h   34 % 0 in /  0.0 mm
20:40 73.2 °F /  22.9 °C 43.2 °F /  6.2 °C 29.9 in /  1012.8 hPa SW 1.2 mph /  1.9 km/h   34 % 0 in /  0.0 mm
20:45 73 °F /  22.8 °C 43 °F /  6.1 °C 29.9 in /  1012.8 hPa Calm     34 % 0 in /  0.0 mm
20:50 72.9 °F /  22.7 °C 42.8 °F /  6.0 °C 29.9 in /  1012.8 hPa WNW 1.2 mph /  1.9 km/h   34 % 0 in /  0.0 mm
20:55 72.7 °F /  22.6 °C 42.6 °F /  5.9 °C 29.9 in /  1012.8 hPa NE 2 mph /  3.2 km/h 2 mph /  3.2 km/h 34 % 0 in /  0.0 mm
21:00 72.5 °F /  22.5 °C 42.4 °F /  5.8 °C 29.9 in /  1012.8 hPa NE 2.3 mph /  3.7 km/h 2.3 mph /  3.7 km/h 34 % 0 in /  0.0 mm
21:05 72.5 °F /  22.5 °C 43.3 °F /  6.3 °C 29.9 in /  1012.8 hPa East 3.5 mph /  5.6 km/h 3.5 mph /  5.6 km/h 35 % 0 in /  0.0 mm
21:10 72.1 °F /  22.3 °C 43.7 °F /  6.5 °C 29.9 in /  1012.8 hPa ENE 3.5 mph /  5.6 km/h 3.6 mph /  5.8 km/h 36 % 0 in /  0.0 mm
21:15 72 °F /  22.2 °C 44.2 °F /  6.8 °C 29.9 in /  1012.8 hPa NNE 4.3 mph /  6.9 km/h 4.3 mph /  6.9 km/h 37 % 0 in /  0.0 mm
21:20 71.8 °F /  22.1 °C 44.8 °F /  7.1 °C 29.9 in /  1012.8 hPa SW 3.5 mph /  5.6 km/h 3.5 mph /  5.6 km/h 38 % 0 in /  0.0 mm
21:25 71.6 °F /  22.0 °C 44.6 °F /  7.0 °C 29.9 in /  1012.8 hPa WSW 2.3 mph /  3.7 km/h   38 % 0 in /  0.0 mm
21:30 71.2 °F /  21.8 °C 45 °F /  7.2 °C 29.9 in /  1012.8 hPa SSE 1.2 mph /  1.9 km/h   39 % 0 in /  0.0 mm
21:35 71.1 °F /  21.7 °C 44.8 °F /  7.1 °C 29.9 in /  1013.8 hPa South 2.3 mph /  3.7 km/h 2.4 mph /  3.9 km/h 39 % 0 in /  0.0 mm
21:40 71.1 °F /  21.7 °C 44.8 °F /  7.1 °C 29.9 in /  1013.8 hPa South 1.2 mph /  1.9 km/h 1.2 mph /  1.9 km/h 39 % 0 in /  0.0 mm
21:45 70.9 °F /  21.6 °C 44.8 °F /  7.1 °C 29.9 in /  1013.8 hPa NE 2.4 mph /  3.9 km/h   39 % 0 in /  0.0 mm
21:50 70.7 °F /  21.5 °C 45.1 °F /  7.3 °C 29.9 in /  1013.8 hPa ENE 2.3 mph /  3.7 km/h 2.3 mph /  3.7 km/h 40 % 0 in /  0.0 mm
21:55 70.5 °F /  21.4 °C 45 °F /  7.2 °C 29.9 in /  1013.8 hPa ENE 1.2 mph /  1.9 km/h   40 % 0 in /  0.0 mm
22:00 70.5 °F /  21.4 °C 45 °F /  7.2 °C 29.9 in /  1013.8 hPa NNE 2.3 mph /  3.7 km/h 2.3 mph /  3.7 km/h 40 % 0 in /  0.0 mm
22:05 70.5 °F /  21.4 °C 45.7 °F /  7.6 °C 29.9 in /  1013.8 hPa East 2.3 mph /  3.7 km/h 2.3 mph /  3.7 km/h 41 % 0 in /  0.0 mm
22:10 70.5 °F /  21.4 °C 45.7 °F /  7.6 °C 29.9 in /  1013.8 hPa ENE 0.9 mph /  1.4 km/h   41 % 0 in /  0.0 mm
22:15 70.2 °F /  21.2 °C 45.3 °F /  7.4 °C 29.9 in /  1013.8 hPa SW 1.2 mph /  1.9 km/h 1.2 mph /  1.9 km/h 41 % 0 in /  0.0 mm
22:20 69.8 °F /  21.0 °C 45 °F /  7.2 °C 29.9 in /  1012.8 hPa Calm     41 % 0 in /  0.0 mm
22:25 69.4 °F /  20.8 °C 45.3 °F /  7.4 °C 29.9 in /  1012.8 hPa Calm     42 % 0 in /  0.0 mm
22:30 69.3 °F /  20.7 °C 45.1 °F /  7.3 °C 29.9 in /  1012.8 hPa Calm     42 % 0 in /  0.0 mm
22:35 69.3 °F /  20.7 °C 45.1 °F /  7.3 °C 29.9 in /  1012.8 hPa South 2.3 mph /  3.7 km/h 2.3 mph /  3.7 km/h 42 % 0 in /  0.0 mm
22:40 69.3 °F /  20.7 °C 44.4 °F /  6.9 °C 29.9 in /  1012.8 hPa SSE 1.4 mph /  2.3 km/h 1.4 mph /  2.3 km/h 41 % 0 in /  0.0 mm
22:45 64 °F /  17.8 °C 47.1 °F /  8.4 °C 29.9 in /  1013.8 hPa NNE 1 mph /  1.6 km/h 2 mph /  3.2 km/h 54 % 0 in /  0.0 mm
22:50 69.1 °F /  20.6 °C 45 °F /  7.2 °C 29.9 in /  1012.8 hPa Calm     42 % 0 in /  0.0 mm
22:55 68.9 °F /  20.5 °C 45 °F /  7.2 °C 29.9 in /  1012.8 hPa Calm     42 % 0 in /  0.0 mm
23:00 68.9 °F /  20.5 °C 45 °F /  7.2 °C 29.9 in /  1012.8 hPa East 1.2 mph /  1.9 km/h 1.4 mph /  2.3 km/h 42 % 0 in /  0.0 mm
23:05 68.7 °F /  20.4 °C 44.8 °F /  7.1 °C 29.9 in /  1013.8 hPa North 1.2 mph /  1.9 km/h 1.2 mph /  1.9 km/h 42 % 0 in /  0.0 mm
23:10 68.7 °F /  20.4 °C 44.8 °F /  7.1 °C 29.9 in /  1013.8 hPa Calm     42 % 0 in /  0.0 mm
23:15 68.7 °F /  20.4 °C 44.8 °F /  7.1 °C 29.9 in /  1013.8 hPa NW 1.2 mph /  1.9 km/h 1.2 mph /  1.9 km/h 42 % 0 in /  0.0 mm
23:20 68.5 °F /  20.3 °C 45.1 °F /  7.3 °C 29.9 in /  1013.8 hPa Calm     43 % 0 in /  0.0 mm
23:25 68.5 °F /  20.3 °C 45.1 °F /  7.3 °C 29.9 in /  1013.8 hPa NE 2.3 mph /  3.7 km/h 2.3 mph /  3.7 km/h 43 % 0 in /  0.0 mm
23:30 68.4 °F /  20.2 °C 45 °F /  7.2 °C 29.9 in /  1013.8 hPa NNE 1.4 mph /  2.3 km/h 1.4 mph /  2.3 km/h 43 % 0 in /  0.0 mm
23:35 68.4 °F /  20.2 °C 45.7 °F /  7.6 °C 29.9 in /  1013.8 hPa NNE 1.2 mph /  1.9 km/h   44 % 0 in /  0.0 mm
23:40 68.2 °F /  20.1 °C 45.3 °F /  7.4 °C 29.9 in /  1013.8 hPa NE 2.4 mph /  3.9 km/h 2.4 mph /  3.9 km/h 44 % 0 in /  0.0 mm
23:45 68.2 °F /  20.1 °C 45.3 °F /  7.4 °C 29.9 in /  1013.8 hPa NNE 2.3 mph /  3.7 km/h   44 % 0 in /  0.0 mm
23:50 68.2 °F /  20.1 °C 45.3 °F /  7.4 °C 30 in /  1014.8 hPa NE 1.6 mph /  2.6 km/h 1.6 mph /  2.6 km/h 44 % 0 in /  0.0 mm
23:55 68 °F /  20.0 °C 45.3 °F /  7.4 °C 30 in /  1014.8 hPa NNE 2.4 mph /  3.9 km/h 2.4 mph /  3.9 km/h 44 % 0 in /  0.0 mm
Meteo Sesrovires
Elogis d' Weather Underground - 3.5 mb

Guio original per  Jim McMurry - jmcmurry@mwt.net Adaptat per a la plantilla per  Wim van der Kuil - Leuven-Template.eu

Trobareu la nostra informacio del temps tambe a:

Weather Underground

AWEKAS